»·PEaware :: TPX762 KLAS-KSAN

TPX762 :: KLAS-KSAN

FLIGHT INFORMATION

Flight Status: Arrived
Operator: ATP Experience
More flights by this operator :: More flights under this callsign
Pilot: Dave P. (45)
Aircraft: BOEING 737-800
(B738)
More flights by this aircraft type
Origin: KLAS McCarran Intl
United States
Destination: KSAN San Diego Intl-Lindbergh
United States
More flights between these airports :: More routes between these airports
Route: BOACH8 LVELL LUCKI1
File this flight plan on PilotEdge
Remarks: RMK / SIMBRIEF
Altitude:
(Current/Filed)
28,000ft
Speed:
(Current/Filed)
470kts
Departed: 05-Jan-20 10:17 AM
Arrived: 05-Jan-20 11:05 AM
Distance/Time
Traveled:
225nm/0:48
Distance/Time
To Go:
Arrived

Flight Plot

Page will automatically refresh every two minutes.


Map Options




Map Legend


Flown Route
Filed Route
Departure Airport
Arrival Airport
Navaid (VOR, NDB)
Fix

Horizontal Profiles

Position Reports

Time Latitude Longitude Heading Altitude Ground
Speed
05-Jan-20 09:35 36.080749 -115.138485 315 2189ft 0kts
05-Jan-20 09:36 36.080749 -115.138485 315 2189ft 0kts
05-Jan-20 09:37 36.080749 -115.138485 315 2189ft 0kts
05-Jan-20 09:38 36.080749 -115.138485 315 2189ft 0kts
05-Jan-20 09:39 36.080749 -115.138485 315 2189ft 0kts
05-Jan-20 09:40 36.080749 -115.138485 315 2189ft 0kts
05-Jan-20 09:41 36.080749 -115.138485 315 2189ft 0kts
05-Jan-20 09:42 36.080749 -115.138485 315 2189ft 0kts
05-Jan-20 09:43 36.080749 -115.138485 315 2189ft 0kts
05-Jan-20 09:44 36.080749 -115.138485 315 2189ft 0kts
05-Jan-20 09:45 36.080749 -115.138485 315 2189ft 0kts
05-Jan-20 09:46 36.080749 -115.138485 315 2189ft 0kts
05-Jan-20 09:47 36.080749 -115.138485 315 2189ft 0kts
05-Jan-20 09:48 36.080749 -115.138485 315 2189ft 0kts
05-Jan-20 09:49 36.080749 -115.138485 315 2189ft 0kts
05-Jan-20 09:50 36.080749 -115.138485 315 2189ft 0kts
05-Jan-20 09:51 36.080749 -115.138485 315 2189ft 0kts
05-Jan-20 09:52 36.080749 -115.138485 315 2189ft 0kts
05-Jan-20 09:53 36.080749 -115.138485 315 2189ft 0kts
05-Jan-20 09:54 36.080749 -115.138485 315 2189ft 0kts
05-Jan-20 09:55 36.080749 -115.138485 315 2189ft 0kts
05-Jan-20 09:56 36.080749 -115.138485 315 2189ft 0kts
05-Jan-20 09:57 36.080749 -115.138485 315 2189ft 0kts
05-Jan-20 09:58 36.080749 -115.138485 315 2189ft 0kts
05-Jan-20 09:59 36.080749 -115.138485 315 2189ft 0kts
05-Jan-20 10:00 36.080749 -115.138485 315 2189ft 0kts
05-Jan-20 10:01 36.080749 -115.138485 315 2189ft 0kts
05-Jan-20 10:02 36.080749 -115.138485 315 2189ft 0kts
05-Jan-20 10:03 36.080749 -115.138485 315 2189ft 0kts
05-Jan-20 10:04 36.080749 -115.138485 315 2189ft 0kts
05-Jan-20 10:05 36.080749 -115.138485 315 2189ft 0kts
05-Jan-20 10:06 36.080749 -115.138485 315 2189ft 0kts
05-Jan-20 10:07 36.080249 -115.137989 349 2189ft 2kts
05-Jan-20 10:08 36.079995 -115.138085 41 2189ft 0kts
05-Jan-20 10:09 36.079995 -115.138084 41 2189ft 0kts
05-Jan-20 10:10 36.079776 -115.136944 134 2189ft 5kts
05-Jan-20 10:11 36.079189 -115.136221 135 2189ft 11kts
05-Jan-20 10:12 36.078280 -115.132306 89 2189ft 19kts
05-Jan-20 10:13 36.078287 -115.125668 89 2189ft 19kts
05-Jan-20 10:14 36.077434 -115.121406 143 2189ft 0kts
05-Jan-20 10:15 36.076486 -115.121342 228 2189ft 8kts
05-Jan-20 10:16 36.076411 -115.124729 270 2189ft 59kts
05-Jan-20 10:17 36.076342 -115.174809 270 3836ft 167kts
05-Jan-20 10:18 36.072088 -115.246241 241 5566ft 252kts
05-Jan-20 10:19 36.007327 -115.284325 200 7024ft 271kts
05-Jan-20 10:20 35.934276 -115.306466 186 8294ft 274kts
05-Jan-20 10:21 35.856492 -115.314486 185 11413ft 298kts
05-Jan-20 10:22 35.762473 -115.304292 180 13050ft 365kts
05-Jan-20 10:23 35.659479 -115.294581 188 16015ft 375kts
05-Jan-20 10:24 35.553734 -115.299591 190 18793ft 387kts
05-Jan-20 10:25 35.444301 -115.303946 190 21379ft 398kts
05-Jan-20 10:26 35.332367 -115.308344 191 23557ft 408kts
05-Jan-20 10:27 35.217504 -115.312862 191 25526ft 416kts
05-Jan-20 10:28 35.101958 -115.317416 191 27855ft 409kts
05-Jan-20 10:29 34.987770 -115.321898 190 28430ft 407kts
05-Jan-20 10:30 34.875080 -115.326294 190 28435ft 406kts
05-Jan-20 10:31 34.764101 -115.340536 203 28438ft 393kts
05-Jan-20 10:32 34.661091 -115.383393 206 28440ft 391kts
05-Jan-20 10:33 34.558591 -115.428345 206 28445ft 391kts
05-Jan-20 10:34 34.455949 -115.473038 206 28450ft 391kts
05-Jan-20 10:35 34.353517 -115.517514 206 28455ft 392kts
05-Jan-20 10:36 34.258785 -115.579004 216 28453ft 385kts
05-Jan-20 10:37 34.162451 -115.637908 207 28447ft 392kts
05-Jan-20 10:38 34.060898 -115.685498 207 28442ft 391kts
05-Jan-20 10:39 33.959565 -115.733147 206 28433ft 392kts
05-Jan-20 10:40 33.858007 -115.782204 207 28420ft 392kts
05-Jan-20 10:41 33.756891 -115.831671 207 28407ft 393kts
05-Jan-20 10:42 33.656974 -115.878296 207 28388ft 381kts
05-Jan-20 10:43 33.559937 -115.923547 207 26989ft 365kts
05-Jan-20 10:44 33.486446 -115.996560 234 24989ft 340kts
05-Jan-20 10:45 33.432227 -116.087556 237 23047ft 329kts
05-Jan-20 10:46 33.380505 -116.176295 237 21166ft 321kts
05-Jan-20 10:47 33.323205 -116.256300 216 19334ft 326kts
05-Jan-20 10:49 33.239482 -116.307716 211 17403ft 338kts
05-Jan-20 10:50 33.155758 -116.356619 210 15132ft 332kts
05-Jan-20 10:51 33.073796 -116.404406 209 13320ft 325kts
05-Jan-20 10:52 32.996653 -116.453161 219 12234ft 296kts
05-Jan-20 10:53 32.934131 -116.516278 222 10693ft 292kts
05-Jan-20 10:54 32.874331 -116.576573 223 10039ft 261kts
05-Jan-20 10:55 32.817564 -116.633742 223 8972ft 277kts
05-Jan-20 10:56 32.764313 -116.697653 240 7755ft 271kts
05-Jan-20 10:57 32.728850 -116.773356 242 6843ft 241kts
05-Jan-20 10:58 32.699745 -116.841527 250 5719ft 232kts
05-Jan-20 10:59 32.678707 -116.912336 252 4736ft 216kts
05-Jan-20 11:00 32.681521 -116.976264 287 3681ft 197kts
05-Jan-20 11:01 32.696608 -117.037343 286 2935ft 187kts
05-Jan-20 11:02 32.710068 -117.092799 286 1824ft 163kts
05-Jan-20 11:03 32.722086 -117.142351 286 841ft 145kts
05-Jan-20 11:04 32.733039 -117.187590 285 23ft 130kts
05-Jan-20 11:05 32.734620 -117.198160 124 23ft 9kts
05-Jan-20 11:06 32.733789 -117.194915 105 23ft 8kts
05-Jan-20 11:07 32.732318 -117.195221 322 23ft 2kts
05-Jan-20 11:08 32.732498 -117.195465 311 23ft 0kts
05-Jan-20 11:09 32.732498 -117.195465 311 23ft 0kts
05-Jan-20 11:09 32.732498 -117.195465 311 23ft 0kts
05-Jan-20 11:11 32.732498 -117.195465 311 23ft 0kts

Navigation Log

Ident Type
Flight plan parsing failed, navigation log unavailable